sensor_id;sensor_type;location;lat;lon;timestamp;P1;durP1;ratioP1;P2;durP2;ratioP2
47625;SDS011;33342;45.574;9.252;2022-10-22T00:01:28;25.20;;;18.55;;
47625;SDS011;33342;45.574;9.252;2022-10-22T00:03:55;22.40;;;18.00;;
47625;SDS011;33342;45.574;9.252;2022-10-22T00:06:22;22.33;;;18.30;;
47625;SDS011;33342;45.574;9.252;2022-10-22T00:08:50;24.83;;;18.05;;
47625;SDS011;33342;45.574;9.252;2022-10-22T00:11:18;25.98;;;18.10;;
47625;SDS011;33342;45.574;9.252;2022-10-22T00:13:46;24.88;;;18.58;;
47625;SDS011;33342;45.574;9.252;2022-10-22T00:16:13;25.58;;;17.90;;
47625;SDS011;33342;45.574;9.252;2022-10-22T00:18:40;26.17;;;17.60;;
47625;SDS011;33342;45.574;9.252;2022-10-22T00:21:08;21.65;;;17.45;;
47625;SDS011;33342;45.574;9.252;2022-10-22T00:23:35;26.80;;;17.50;;
47625;SDS011;33342;45.574;9.252;2022-10-22T00:26:05;23.13;;;16.65;;
47625;SDS011;33342;45.574;9.252;2022-10-22T00:28:32;26.30;;;18.65;;
47625;SDS011;33342;45.574;9.252;2022-10-22T00:30:59;24.65;;;16.52;;
47625;SDS011;33342;45.574;9.252;2022-10-22T00:33:27;24.73;;;17.38;;
47625;SDS011;33342;45.574;9.252;2022-10-22T00:35:55;24.00;;;16.70;;
47625;SDS011;33342;45.574;9.252;2022-10-22T00:38:22;22.90;;;17.50;;
47625;SDS011;33342;45.574;9.252;2022-10-22T00:40:49;19.38;;;15.73;;
47625;SDS011;33342;45.574;9.252;2022-10-22T00:43:18;25.52;;;16.58;;
47625;SDS011;33342;45.574;9.252;2022-10-22T00:45:45;22.48;;;17.65;;
47625;SDS011;33342;45.574;9.252;2022-10-22T00:48:20;26.90;;;17.55;;
47625;SDS011;33342;45.574;9.252;2022-10-22T00:50:51;22.85;;;18.00;;
47625;SDS011;33342;45.574;9.252;2022-10-22T00:53:36;23.08;;;17.52;;
47625;SDS011;33342;45.574;9.252;2022-10-22T00:56:10;22.65;;;16.58;;
47625;SDS011;33342;45.574;9.252;2022-10-22T00:58:40;21.65;;;18.05;;
47625;SDS011;33342;45.574;9.252;2022-10-22T01:01:11;25.25;;;16.63;;
47625;SDS011;33342;45.574;9.252;2022-10-22T01:03:42;22.40;;;16.70;;
47625;SDS011;33342;45.574;9.252;2022-10-22T01:06:09;25.92;;;17.13;;
47625;SDS011;33342;45.574;9.252;2022-10-22T01:08:53;25.60;;;17.15;;
47625;SDS011;33342;45.574;9.252;2022-10-22T01:12:15;24.75;;;17.20;;
47625;SDS011;33342;45.574;9.252;2022-10-22T01:14:23;24.20;;;17.45;;
47625;SDS011;33342;45.574;9.252;2022-10-22T01:17:24;23.63;;;17.30;;
47625;SDS011;33342;45.574;9.252;2022-10-22T01:22:42;24.50;;;16.73;;
47625;SDS011;33342;45.574;9.252;2022-10-22T01:30:47;21.88;;;16.63;;
47625;SDS011;33342;45.574;9.252;2022-10-22T01:33:20;24.27;;;17.38;;
47625;SDS011;33342;45.574;9.252;2022-10-22T01:35:50;24.13;;;16.83;;
47625;SDS011;33342;45.574;9.252;2022-10-22T01:38:19;24.90;;;16.92;;
47625;SDS011;33342;45.574;9.252;2022-10-22T01:40:50;23.80;;;16.73;;
47625;SDS011;33342;45.574;9.252;2022-10-22T01:43:17;25.23;;;16.77;;
47625;SDS011;33342;45.574;9.252;2022-10-22T01:45:48;23.23;;;16.92;;
47625;SDS011;33342;45.574;9.252;2022-10-22T01:51:29;23.35;;;16.50;;
47625;SDS011;33342;45.574;9.252;2022-10-22T02:01:48;23.02;;;16.30;;
47625;SDS011;33342;45.574;9.252;2022-10-22T02:04:19;20.67;;;15.30;;
47625;SDS011;33342;45.574;9.252;2022-10-22T02:06:52;22.77;;;16.35;;
47625;SDS011;33342;45.574;9.252;2022-10-22T02:09:23;23.00;;;15.75;;
47625;SDS011;33342;45.574;9.252;2022-10-22T02:11:53;24.48;;;16.50;;
47625;SDS011;33342;45.574;9.252;2022-10-22T02:14:21;25.73;;;16.23;;
47625;SDS011;33342;45.574;9.252;2022-10-22T02:16:51;24.42;;;16.30;;
47625;SDS011;33342;45.574;9.252;2022-10-22T02:19:23;21.50;;;15.15;;
47625;SDS011;33342;45.574;9.252;2022-10-22T02:21:52;20.90;;;15.85;;
47625;SDS011;33342;45.574;9.252;2022-10-22T02:24:20;22.27;;;16.25;;
47625;SDS011;33342;45.574;9.252;2022-10-22T02:29:36;20.33;;;15.82;;
47625;SDS011;33342;45.574;9.252;2022-10-22T02:32:07;21.13;;;15.18;;
47625;SDS011;33342;45.574;9.252;2022-10-22T02:34:37;19.98;;;14.55;;
47625;SDS011;33342;45.574;9.252;2022-10-22T02:37:04;21.33;;;15.15;;
47625;SDS011;33342;45.574;9.252;2022-10-22T02:39:32;21.45;;;16.13;;
47625;SDS011;33342;45.574;9.252;2022-10-22T02:42:01;24.38;;;17.00;;
47625;SDS011;33342;45.574;9.252;2022-10-22T02:44:28;22.05;;;16.10;;
47625;SDS011;33342;45.574;9.252;2022-10-22T02:46:56;21.52;;;14.85;;
47625;SDS011;33342;45.574;9.252;2022-10-22T02:49:24;24.83;;;15.80;;
47625;SDS011;33342;45.574;9.252;2022-10-22T02:51:51;21.10;;;15.85;;
47625;SDS011;33342;45.574;9.252;2022-10-22T02:54:18;23.77;;;16.15;;
47625;SDS011;33342;45.574;9.252;2022-10-22T02:56:45;21.88;;;15.48;;
47625;SDS011;33342;45.574;9.252;2022-10-22T02:59:12;22.15;;;16.45;;
47625;SDS011;33342;45.574;9.252;2022-10-22T03:01:39;25.95;;;16.30;;
47625;SDS011;33342;45.574;9.252;2022-10-22T03:04:06;23.13;;;16.92;;
47625;SDS011;33342;45.574;9.252;2022-10-22T03:06:33;20.15;;;15.00;;
47625;SDS011;33342;45.574;9.252;2022-10-22T03:09:00;22.40;;;15.93;;
47625;SDS011;33342;45.574;9.252;2022-10-22T03:11:28;22.52;;;16.65;;
47625;SDS011;33342;45.574;9.252;2022-10-22T03:13:55;22.73;;;15.70;;
47625;SDS011;33342;45.574;9.252;2022-10-22T03:16:22;23.10;;;16.20;;
47625;SDS011;33342;45.574;9.252;2022-10-22T03:18:48;20.63;;;16.23;;
47625;SDS011;33342;45.574;9.252;2022-10-22T03:21:27;24.35;;;16.73;;
47625;SDS011;33342;45.574;9.252;2022-10-22T03:23:56;22.77;;;16.15;;
47625;SDS011;33342;45.574;9.252;2022-10-22T03:26:25;20.50;;;16.05;;
47625;SDS011;33342;45.574;9.252;2022-10-22T03:28:52;20.58;;;15.57;;
47625;SDS011;33342;45.574;9.252;2022-10-22T03:31:19;21.70;;;16.20;;
47625;SDS011;33342;45.574;9.252;2022-10-22T03:33:46;21.83;;;15.15;;
47625;SDS011;33342;45.574;9.252;2022-10-22T03:36:13;26.25;;;15.98;;
47625;SDS011;33342;45.574;9.252;2022-10-22T03:38:40;20.73;;;15.18;;
47625;SDS011;33342;45.574;9.252;2022-10-22T03:41:07;24.50;;;16.95;;
47625;SDS011;33342;45.574;9.252;2022-10-22T03:43:35;22.05;;;16.58;;
47625;SDS011;33342;45.574;9.252;2022-10-22T03:46:04;23.63;;;16.13;;
47625;SDS011;33342;45.574;9.252;2022-10-22T03:48:31;25.77;;;17.08;;
47625;SDS011;33342;45.574;9.252;2022-10-22T03:50:58;20.67;;;16.20;;
47625;SDS011;33342;45.574;9.252;2022-10-22T03:53:25;23.58;;;15.57;;
47625;SDS011;33342;45.574;9.252;2022-10-22T03:55:52;22.88;;;16.70;;
47625;SDS011;33342;45.574;9.252;2022-10-22T03:58:19;20.55;;;16.13;;
47625;SDS011;33342;45.574;9.252;2022-10-22T04:00:46;21.77;;;15.88;;
47625;SDS011;33342;45.574;9.252;2022-10-22T04:03:13;22.88;;;16.83;;
47625;SDS011;33342;45.574;9.252;2022-10-22T04:05:40;24.65;;;16.92;;
47625;SDS011;33342;45.574;9.252;2022-10-22T04:08:07;22.80;;;16.42;;
47625;SDS011;33342;45.574;9.252;2022-10-22T04:10:34;23.25;;;17.25;;
47625;SDS011;33342;45.574;9.252;2022-10-22T04:13:01;22.35;;;17.42;;
47625;SDS011;33342;45.574;9.252;2022-10-22T04:15:28;22.85;;;16.88;;
47625;SDS011;33342;45.574;9.252;2022-10-22T04:17:55;19.92;;;17.27;;
47625;SDS011;33342;45.574;9.252;2022-10-22T04:20:22;25.45;;;17.95;;
47625;SDS011;33342;45.574;9.252;2022-10-22T04:22:49;21.20;;;17.77;;
47625;SDS011;33342;45.574;9.252;2022-10-22T04:25:16;22.83;;;17.65;;
47625;SDS011;33342;45.574;9.252;2022-10-22T04:27:44;24.88;;;18.27;;
47625;SDS011;33342;45.574;9.252;2022-10-22T04:30:11;24.25;;;18.83;;
47625;SDS011;33342;45.574;9.252;2022-10-22T04:32:38;24.58;;;18.40;;
47625;SDS011;33342;45.574;9.252;2022-10-22T04:35:08;26.05;;;19.45;;
47625;SDS011;33342;45.574;9.252;2022-10-22T04:37:35;23.80;;;18.30;;
47625;SDS011;33342;45.574;9.252;2022-10-22T04:40:03;24.45;;;19.45;;
47625;SDS011;33342;45.574;9.252;2022-10-22T04:42:30;27.42;;;19.55;;
47625;SDS011;33342;45.574;9.252;2022-10-22T04:44:57;28.42;;;18.90;;
47625;SDS011;33342;45.574;9.252;2022-10-22T04:47:24;28.50;;;18.70;;
47625;SDS011;33342;45.574;9.252;2022-10-22T04:49:51;25.20;;;19.52;;
47625;SDS011;33342;45.574;9.252;2022-10-22T04:52:18;22.52;;;17.15;;
47625;SDS011;33342;45.574;9.252;2022-10-22T04:54:45;25.00;;;18.48;;
47625;SDS011;33342;45.574;9.252;2022-10-22T04:57:12;31.75;;;24.40;;
47625;SDS011;33342;45.574;9.252;2022-10-22T04:59:39;40.38;;;32.00;;
47625;SDS011;33342;45.574;9.252;2022-10-22T05:02:06;32.00;;;22.90;;
47625;SDS011;33342;45.574;9.252;2022-10-22T05:04:33;24.88;;;18.42;;
47625;SDS011;33342;45.574;9.252;2022-10-22T05:07:00;24.65;;;18.88;;
47625;SDS011;33342;45.574;9.252;2022-10-22T05:09:27;26.65;;;19.60;;
47625;SDS011;33342;45.574;9.252;2022-10-22T05:11:54;27.17;;;20.05;;
47625;SDS011;33342;45.574;9.252;2022-10-22T05:14:23;24.88;;;18.60;;
47625;SDS011;33342;45.574;9.252;2022-10-22T05:16:50;26.20;;;19.60;;
47625;SDS011;33342;45.574;9.252;2022-10-22T05:19:19;25.70;;;19.42;;
47625;SDS011;33342;45.574;9.252;2022-10-22T05:21:50;25.30;;;19.05;;
47625;SDS011;33342;45.574;9.252;2022-10-22T05:24:18;24.67;;;18.77;;
47625;SDS011;33342;45.574;9.252;2022-10-22T05:26:47;28.08;;;19.50;;
47625;SDS011;33342;45.574;9.252;2022-10-22T05:29:18;26.65;;;19.10;;
47625;SDS011;33342;45.574;9.252;2022-10-22T05:31:45;23.23;;;18.65;;
47625;SDS011;33342;45.574;9.252;2022-10-22T05:34:12;27.42;;;20.25;;
47625;SDS011;33342;45.574;9.252;2022-10-22T05:36:40;24.15;;;18.70;;
47625;SDS011;33342;45.574;9.252;2022-10-22T05:39:08;29.15;;;20.65;;
47625;SDS011;33342;45.574;9.252;2022-10-22T05:41:35;25.70;;;18.75;;
47625;SDS011;33342;45.574;9.252;2022-10-22T05:44:03;25.38;;;19.10;;
47625;SDS011;33342;45.574;9.252;2022-10-22T05:46:32;26.30;;;19.27;;
47625;SDS011;33342;45.574;9.252;2022-10-22T05:49:02;25.02;;;18.17;;
47625;SDS011;33342;45.574;9.252;2022-10-22T05:51:32;25.33;;;18.80;;
47625;SDS011;33342;45.574;9.252;2022-10-22T05:54:01;68.80;;;21.98;;
47625;SDS011;33342;45.574;9.252;2022-10-22T05:56:33;31.25;;;18.40;;
47625;SDS011;33342;45.574;9.252;2022-10-22T05:59:00;22.67;;;17.90;;
47625;SDS011;33342;45.574;9.252;2022-10-22T06:01:29;28.08;;;18.27;;
47625;SDS011;33342;45.574;9.252;2022-10-22T06:03:58;27.75;;;18.17;;
47625;SDS011;33342;45.574;9.252;2022-10-22T06:06:43;25.70;;;18.33;;
47625;SDS011;33342;45.574;9.252;2022-10-22T06:09:26;25.40;;;18.02;;
47625;SDS011;33342;45.574;9.252;2022-10-22T06:11:57;22.88;;;18.55;;
47625;SDS011;33342;45.574;9.252;2022-10-22T06:14:24;24.83;;;18.10;;
47625;SDS011;33342;45.574;9.252;2022-10-22T06:16:52;29.05;;;19.00;;
47625;SDS011;33342;45.574;9.252;2022-10-22T06:19:21;28.15;;;19.98;;
47625;SDS011;33342;45.574;9.252;2022-10-22T06:21:48;26.70;;;18.80;;
47625;SDS011;33342;45.574;9.252;2022-10-22T06:24:15;26.00;;;18.50;;
47625;SDS011;33342;45.574;9.252;2022-10-22T06:26:43;25.73;;;18.77;;
47625;SDS011;33342;45.574;9.252;2022-10-22T06:29:10;23.35;;;18.58;;
47625;SDS011;33342;45.574;9.252;2022-10-22T06:31:37;24.45;;;18.33;;
47625;SDS011;33342;45.574;9.252;2022-10-22T06:34:05;24.00;;;17.80;;
47625;SDS011;33342;45.574;9.252;2022-10-22T06:36:34;62.03;;;21.30;;
47625;SDS011;33342;45.574;9.252;2022-10-22T06:39:02;39.53;;;19.63;;
47625;SDS011;33342;45.574;9.252;2022-10-22T06:41:30;44.25;;;20.30;;
47625;SDS011;33342;45.574;9.252;2022-10-22T06:43:57;38.70;;;20.08;;
47625;SDS011;33342;45.574;9.252;2022-10-22T06:46:24;30.67;;;19.80;;
47625;SDS011;33342;45.574;9.252;2022-10-22T06:48:56;24.33;;;18.38;;
47625;SDS011;33342;45.574;9.252;2022-10-22T06:51:28;31.63;;;20.10;;
47625;SDS011;33342;45.574;9.252;2022-10-22T06:53:55;28.10;;;19.67;;
47625;SDS011;33342;45.574;9.252;2022-10-22T06:56:24;29.80;;;18.42;;
47625;SDS011;33342;45.574;9.252;2022-10-22T06:58:53;27.60;;;19.08;;
47625;SDS011;33342;45.574;9.252;2022-10-22T07:01:23;28.67;;;18.77;;
47625;SDS011;33342;45.574;9.252;2022-10-22T07:03:52;26.08;;;17.95;;
47625;SDS011;33342;45.574;9.252;2022-10-22T07:06:19;24.90;;;18.75;;
47625;SDS011;33342;45.574;9.252;2022-10-22T07:08:48;26.80;;;18.50;;
47625;SDS011;33342;45.574;9.252;2022-10-22T07:11:16;26.80;;;19.17;;
47625;SDS011;33342;45.574;9.252;2022-10-22T07:13:45;25.83;;;18.73;;
47625;SDS011;33342;45.574;9.252;2022-10-22T07:16:13;31.45;;;19.88;;
47625;SDS011;33342;45.574;9.252;2022-10-22T07:18:41;29.75;;;19.70;;
47625;SDS011;33342;45.574;9.252;2022-10-22T07:21:09;27.77;;;18.88;;
47625;SDS011;33342;45.574;9.252;2022-10-22T07:23:37;45.42;;;35.35;;
47625;SDS011;33342;45.574;9.252;2022-10-22T07:26:04;28.00;;;19.45;;
47625;SDS011;33342;45.574;9.252;2022-10-22T07:28:35;25.05;;;18.38;;
47625;SDS011;33342;45.574;9.252;2022-10-22T07:31:05;26.25;;;19.58;;
47625;SDS011;33342;45.574;9.252;2022-10-22T07:33:34;26.65;;;19.83;;
47625;SDS011;33342;45.574;9.252;2022-10-22T07:36:02;26.15;;;19.20;;
47625;SDS011;33342;45.574;9.252;2022-10-22T07:38:31;33.10;;;19.52;;
47625;SDS011;33342;45.574;9.252;2022-10-22T07:40:59;31.40;;;19.08;;
47625;SDS011;33342;45.574;9.252;2022-10-22T07:43:26;25.80;;;18.10;;
47625;SDS011;33342;45.574;9.252;2022-10-22T07:45:53;29.73;;;20.00;;
47625;SDS011;33342;45.574;9.252;2022-10-22T07:48:25;31.58;;;19.92;;
47625;SDS011;33342;45.574;9.252;2022-10-22T07:50:52;28.85;;;20.42;;
47625;SDS011;33342;45.574;9.252;2022-10-22T07:53:19;29.63;;;19.30;;
47625;SDS011;33342;45.574;9.252;2022-10-22T07:55:47;28.85;;;20.20;;
47625;SDS011;33342;45.574;9.252;2022-10-22T07:58:16;29.23;;;20.80;;
47625;SDS011;33342;45.574;9.252;2022-10-22T08:00:43;25.40;;;19.60;;
47625;SDS011;33342;45.574;9.252;2022-10-22T08:03:11;23.95;;;19.23;;
47625;SDS011;33342;45.574;9.252;2022-10-22T08:05:39;28.52;;;20.35;;
47625;SDS011;33342;45.574;9.252;2022-10-22T08:08:09;29.02;;;20.13;;
47625;SDS011;33342;45.574;9.252;2022-10-22T08:10:37;26.83;;;19.73;;
47625;SDS011;33342;45.574;9.252;2022-10-22T08:13:04;24.08;;;17.83;;
47625;SDS011;33342;45.574;9.252;2022-10-22T08:15:32;23.60;;;19.63;;
47625;SDS011;33342;45.574;9.252;2022-10-22T08:18:00;27.70;;;18.88;;
47625;SDS011;33342;45.574;9.252;2022-10-22T08:20:28;29.98;;;20.20;;
47625;SDS011;33342;45.574;9.252;2022-10-22T08:22:55;26.55;;;20.88;;
47625;SDS011;33342;45.574;9.252;2022-10-22T08:25:22;31.88;;;20.40;;
47625;SDS011;33342;45.574;9.252;2022-10-22T08:27:49;30.35;;;20.08;;
47625;SDS011;33342;45.574;9.252;2022-10-22T08:30:16;25.75;;;18.65;;
47625;SDS011;33342;45.574;9.252;2022-10-22T08:32:43;21.88;;;17.33;;
47625;SDS011;33342;45.574;9.252;2022-10-22T08:35:11;25.67;;;17.45;;
47625;SDS011;33342;45.574;9.252;2022-10-22T08:37:43;26.75;;;17.35;;
47625;SDS011;33342;45.574;9.252;2022-10-22T08:40:11;23.33;;;17.00;;
47625;SDS011;33342;45.574;9.252;2022-10-22T08:43:03;24.48;;;17.83;;
47625;SDS011;33342;45.574;9.252;2022-10-22T08:48:45;24.35;;;17.95;;
47625;SDS011;33342;45.574;9.252;2022-10-22T08:51:20;22.98;;;16.67;;
47625;SDS011;33342;45.574;9.252;2022-10-22T08:54:07;24.65;;;17.48;;
47625;SDS011;33342;45.574;9.252;2022-10-22T08:56:44;27.88;;;17.30;;
47625;SDS011;33342;45.574;9.252;2022-10-22T08:59:21;24.67;;;16.65;;
47625;SDS011;33342;45.574;9.252;2022-10-22T09:01:52;22.60;;;16.92;;
47625;SDS011;33342;45.574;9.252;2022-10-22T09:04:23;27.75;;;16.92;;
47625;SDS011;33342;45.574;9.252;2022-10-22T09:06:56;28.05;;;16.95;;
47625;SDS011;33342;45.574;9.252;2022-10-22T09:09:27;23.73;;;16.58;;
47625;SDS011;33342;45.574;9.252;2022-10-22T09:12:02;20.77;;;15.55;;
47625;SDS011;33342;45.574;9.252;2022-10-22T09:14:30;24.92;;;16.17;;
47625;SDS011;33342;45.574;9.252;2022-10-22T09:20:02;21.48;;;15.63;;
47625;SDS011;33342;45.574;9.252;2022-10-22T09:25:36;23.77;;;16.25;;
47625;SDS011;33342;45.574;9.252;2022-10-22T09:28:03;23.25;;;15.50;;
47625;SDS011;33342;45.574;9.252;2022-10-22T09:30:32;23.50;;;15.48;;
47625;SDS011;33342;45.574;9.252;2022-10-22T09:33:05;20.40;;;14.50;;
47625;SDS011;33342;45.574;9.252;2022-10-22T09:36:20;27.83;;;14.38;;
47625;SDS011;33342;45.574;9.252;2022-10-22T09:38:29;21.70;;;14.93;;
47625;SDS011;33342;45.574;9.252;2022-10-22T09:41:00;20.02;;;13.63;;
47625;SDS011;33342;45.574;9.252;2022-10-22T09:43:29;20.83;;;13.85;;
47625;SDS011;33342;45.574;9.252;2022-10-22T09:45:59;19.73;;;14.00;;
47625;SDS011;33342;45.574;9.252;2022-10-22T09:51:23;20.67;;;14.93;;
47625;SDS011;33342;45.574;9.252;2022-10-22T09:54:01;21.25;;;14.80;;
47625;SDS011;33342;45.574;9.252;2022-10-22T09:56:39;21.38;;;14.30;;
47625;SDS011;33342;45.574;9.252;2022-10-22T09:59:17;21.77;;;15.50;;
47625;SDS011;33342;45.574;9.252;2022-10-22T10:01:55;20.35;;;14.20;;
47625;SDS011;33342;45.574;9.252;2022-10-22T10:04:47;22.83;;;14.75;;
47625;SDS011;33342;45.574;9.252;2022-10-22T10:09:51;21.77;;;15.32;;
47625;SDS011;33342;45.574;9.252;2022-10-22T10:12:42;20.25;;;15.23;;
47625;SDS011;33342;45.574;9.252;2022-10-22T10:15:28;21.70;;;13.80;;
47625;SDS011;33342;45.574;9.252;2022-10-22T10:23:31;19.92;;;15.10;;
47625;SDS011;33342;45.574;9.252;2022-10-22T10:26:21;21.58;;;16.05;;
47625;SDS011;33342;45.574;9.252;2022-10-22T10:34:44;25.35;;;15.73;;
47625;SDS011;33342;45.574;9.252;2022-10-22T10:42:43;24.42;;;15.98;;
47625;SDS011;33342;45.574;9.252;2022-10-22T10:50:28;24.95;;;15.48;;
47625;SDS011;33342;45.574;9.252;2022-10-22T10:53:06;24.83;;;17.65;;
47625;SDS011;33342;45.574;9.252;2022-10-22T10:56:03;25.27;;;16.70;;
47625;SDS011;33342;45.574;9.252;2022-10-22T11:01:28;21.88;;;17.65;;
47625;SDS011;33342;45.574;9.252;2022-10-22T11:06:50;23.33;;;16.83;;
47625;SDS011;33342;45.574;9.252;2022-10-22T11:09:42;25.73;;;18.10;;
47625;SDS011;33342;45.574;9.252;2022-10-22T11:12:29;21.35;;;16.05;;
47625;SDS011;33342;45.574;9.252;2022-10-22T11:17:38;26.50;;;18.45;;
47625;SDS011;33342;45.574;9.252;2022-10-22T11:22:43;26.95;;;17.52;;
47625;SDS011;33342;45.574;9.252;2022-10-22T11:25:38;24.53;;;17.23;;
47625;SDS011;33342;45.574;9.252;2022-10-22T11:30:43;26.10;;;18.50;;
47625;SDS011;33342;45.574;9.252;2022-10-22T11:33:14;24.98;;;18.42;;
47625;SDS011;33342;45.574;9.252;2022-10-22T11:35:45;26.08;;;18.55;;
47625;SDS011;33342;45.574;9.252;2022-10-22T11:38:14;26.20;;;18.10;;
47625;SDS011;33342;45.574;9.252;2022-10-22T11:40:49;26.85;;;19.70;;
47625;SDS011;33342;45.574;9.252;2022-10-22T11:43:30;29.75;;;19.48;;
47625;SDS011;33342;45.574;9.252;2022-10-22T11:52:04;27.98;;;18.95;;
47625;SDS011;33342;45.574;9.252;2022-10-22T11:54:49;26.75;;;19.27;;
47625;SDS011;33342;45.574;9.252;2022-10-22T11:57:36;29.95;;;18.95;;
47625;SDS011;33342;45.574;9.252;2022-10-22T12:00:08;23.60;;;18.70;;
47625;SDS011;33342;45.574;9.252;2022-10-22T12:08:45;29.25;;;21.00;;
47625;SDS011;33342;45.574;9.252;2022-10-22T12:16:56;27.83;;;20.83;;
47625;SDS011;33342;45.574;9.252;2022-10-22T12:19:46;25.25;;;20.77;;
47625;SDS011;33342;45.574;9.252;2022-10-22T12:22:28;28.63;;;20.90;;
47625;SDS011;33342;45.574;9.252;2022-10-22T12:24:59;28.70;;;20.40;;
47625;SDS011;33342;45.574;9.252;2022-10-22T12:30:19;26.30;;;19.45;;
47625;SDS011;33342;45.574;9.252;2022-10-22T12:32:54;27.35;;;21.00;;
47625;SDS011;33342;45.574;9.252;2022-10-22T12:35:29;29.25;;;20.83;;
47625;SDS011;33342;45.574;9.252;2022-10-22T12:37:59;29.88;;;20.20;;
47625;SDS011;33342;45.574;9.252;2022-10-22T12:40:29;26.95;;;19.15;;
47625;SDS011;33342;45.574;9.252;2022-10-22T12:43:01;28.08;;;19.63;;
47625;SDS011;33342;45.574;9.252;2022-10-22T12:45:44;28.55;;;20.35;;
47625;SDS011;33342;45.574;9.252;2022-10-22T12:50:43;25.33;;;17.65;;
47625;SDS011;33342;45.574;9.252;2022-10-22T12:53:36;27.55;;;19.48;;
47625;SDS011;33342;45.574;9.252;2022-10-22T12:56:04;27.38;;;19.13;;
47625;SDS011;33342;45.574;9.252;2022-10-22T12:58:45;23.85;;;18.27;;
47625;SDS011;33342;45.574;9.252;2022-10-22T13:01:19;28.60;;;18.88;;
47625;SDS011;33342;45.574;9.252;2022-10-22T13:03:50;27.00;;;18.75;;
47625;SDS011;33342;45.574;9.252;2022-10-22T13:06:32;23.70;;;16.95;;
47625;SDS011;33342;45.574;9.252;2022-10-22T13:11:31;23.60;;;16.15;;
47625;SDS011;33342;45.574;9.252;2022-10-22T13:14:01;27.95;;;16.75;;
47625;SDS011;33342;45.574;9.252;2022-10-22T13:16:32;23.55;;;15.45;;
47625;SDS011;33342;45.574;9.252;2022-10-22T13:18:59;22.55;;;14.43;;
47625;SDS011;33342;45.574;9.252;2022-10-22T13:21:33;23.30;;;16.88;;
47625;SDS011;33342;45.574;9.252;2022-10-22T13:24:22;27.50;;;16.80;;
47625;SDS011;33342;45.574;9.252;2022-10-22T13:26:51;25.05;;;16.05;;
47625;SDS011;33342;45.574;9.252;2022-10-22T13:29:20;22.17;;;16.92;;
47625;SDS011;33342;45.574;9.252;2022-10-22T13:31:49;26.20;;;16.20;;
47625;SDS011;33342;45.574;9.252;2022-10-22T13:34:18;23.73;;;15.93;;
47625;SDS011;33342;45.574;9.252;2022-10-22T13:36:47;25.08;;;15.48;;
47625;SDS011;33342;45.574;9.252;2022-10-22T13:39:19;22.02;;;13.93;;
47625;SDS011;33342;45.574;9.252;2022-10-22T13:41:47;20.10;;;13.50;;
47625;SDS011;33342;45.574;9.252;2022-10-22T13:44:21;27.83;;;15.52;;
47625;SDS011;33342;45.574;9.252;2022-10-22T13:46:48;21.00;;;13.50;;
47625;SDS011;33342;45.574;9.252;2022-10-22T13:49:19;20.80;;;14.10;;
47625;SDS011;33342;45.574;9.252;2022-10-22T13:51:48;17.95;;;12.70;;
47625;SDS011;33342;45.574;9.252;2022-10-22T13:54:20;20.77;;;14.40;;
47625;SDS011;33342;45.574;9.252;2022-10-22T13:56:49;23.83;;;15.13;;
47625;SDS011;33342;45.574;9.252;2022-10-22T13:59:16;22.88;;;14.70;;
47625;SDS011;33342;45.574;9.252;2022-10-22T14:01:49;24.45;;;15.70;;
47625;SDS011;33342;45.574;9.252;2022-10-22T14:04:16;21.92;;;13.80;;
47625;SDS011;33342;45.574;9.252;2022-10-22T14:06:43;20.35;;;13.98;;
47625;SDS011;33342;45.574;9.252;2022-10-22T14:09:12;22.40;;;14.32;;
47625;SDS011;33342;45.574;9.252;2022-10-22T14:11:40;22.10;;;13.48;;
47625;SDS011;33342;45.574;9.252;2022-10-22T14:14:08;21.33;;;14.73;;
47625;SDS011;33342;45.574;9.252;2022-10-22T14:16:42;19.88;;;15.05;;
47625;SDS011;33342;45.574;9.252;2022-10-22T14:19:13;21.25;;;15.00;;
47625;SDS011;33342;45.574;9.252;2022-10-22T14:21:41;25.13;;;16.73;;
47625;SDS011;33342;45.574;9.252;2022-10-22T14:24:09;25.48;;;15.98;;
47625;SDS011;33342;45.574;9.252;2022-10-22T14:26:39;24.58;;;15.63;;
47625;SDS011;33342;45.574;9.252;2022-10-22T14:29:06;21.60;;;14.98;;
47625;SDS011;33342;45.574;9.252;2022-10-22T14:31:39;22.55;;;14.68;;
47625;SDS011;33342;45.574;9.252;2022-10-22T14:34:10;20.70;;;14.75;;
47625;SDS011;33342;45.574;9.252;2022-10-22T14:36:38;24.45;;;15.40;;
47625;SDS011;33342;45.574;9.252;2022-10-22T14:39:05;24.85;;;15.65;;
47625;SDS011;33342;45.574;9.252;2022-10-22T14:41:32;23.73;;;14.93;;
47625;SDS011;33342;45.574;9.252;2022-10-22T14:43:59;22.85;;;15.20;;
47625;SDS011;33342;45.574;9.252;2022-10-22T14:46:27;21.52;;;14.93;;
47625;SDS011;33342;45.574;9.252;2022-10-22T14:48:54;22.15;;;14.27;;
47625;SDS011;33342;45.574;9.252;2022-10-22T14:51:21;24.38;;;14.95;;
47625;SDS011;33342;45.574;9.252;2022-10-22T14:53:48;26.35;;;15.20;;
47625;SDS011;33342;45.574;9.252;2022-10-22T14:56:17;23.70;;;16.05;;
47625;SDS011;33342;45.574;9.252;2022-10-22T14:58:47;24.73;;;17.67;;
47625;SDS011;33342;45.574;9.252;2022-10-22T15:01:14;24.75;;;17.35;;
47625;SDS011;33342;45.574;9.252;2022-10-22T15:03:41;22.13;;;17.23;;
47625;SDS011;33342;45.574;9.252;2022-10-22T15:06:08;23.58;;;15.20;;
47625;SDS011;33342;45.574;9.252;2022-10-22T15:08:35;23.48;;;15.98;;
47625;SDS011;33342;45.574;9.252;2022-10-22T15:11:06;24.48;;;16.98;;
47625;SDS011;33342;45.574;9.252;2022-10-22T15:13:36;23.92;;;17.15;;
47625;SDS011;33342;45.574;9.252;2022-10-22T15:16:07;26.35;;;17.95;;
47625;SDS011;33342;45.574;9.252;2022-10-22T15:18:35;24.30;;;17.75;;
47625;SDS011;33342;45.574;9.252;2022-10-22T15:21:04;24.85;;;18.00;;
47625;SDS011;33342;45.574;9.252;2022-10-22T15:23:33;27.70;;;17.20;;
47625;SDS011;33342;45.574;9.252;2022-10-22T15:26:01;25.10;;;17.15;;
47625;SDS011;33342;45.574;9.252;2022-10-22T15:28:28;20.88;;;16.17;;
47625;SDS011;33342;45.574;9.252;2022-10-22T15:30:56;21.20;;;16.40;;
47625;SDS011;33342;45.574;9.252;2022-10-22T15:33:25;23.30;;;16.90;;
47625;SDS011;33342;45.574;9.252;2022-10-22T15:35:53;23.77;;;16.13;;
47625;SDS011;33342;45.574;9.252;2022-10-22T15:38:25;25.25;;;16.88;;
47625;SDS011;33342;45.574;9.252;2022-10-22T15:41:02;22.88;;;16.33;;
47625;SDS011;33342;45.574;9.252;2022-10-22T15:43:32;25.05;;;17.35;;
47625;SDS011;33342;45.574;9.252;2022-10-22T15:46:09;27.40;;;17.27;;
47625;SDS011;33342;45.574;9.252;2022-10-22T15:48:39;22.50;;;17.88;;
47625;SDS011;33342;45.574;9.252;2022-10-22T15:51:07;22.95;;;17.33;;
47625;SDS011;33342;45.574;9.252;2022-10-22T15:53:39;25.90;;;17.95;;
47625;SDS011;33342;45.574;9.252;2022-10-22T15:56:06;30.80;;;18.15;;
47625;SDS011;33342;45.574;9.252;2022-10-22T15:58:34;25.20;;;18.48;;
47625;SDS011;33342;45.574;9.252;2022-10-22T16:01:08;26.50;;;17.95;;
47625;SDS011;33342;45.574;9.252;2022-10-22T16:03:36;26.38;;;18.58;;
47625;SDS011;33342;45.574;9.252;2022-10-22T16:06:04;24.67;;;17.48;;
47625;SDS011;33342;45.574;9.252;2022-10-22T16:08:32;26.92;;;17.75;;
47625;SDS011;33342;45.574;9.252;2022-10-22T16:10:59;26.88;;;18.48;;
47625;SDS011;33342;45.574;9.252;2022-10-22T16:13:44;27.77;;;17.95;;
47625;SDS011;33342;45.574;9.252;2022-10-22T16:16:11;25.30;;;16.38;;
47625;SDS011;33342;45.574;9.252;2022-10-22T16:18:41;27.48;;;18.08;;